Time;durP1;ratioP1;P1;durP2;ratioP2;P2;SDS_P1;SDS_P2;PMS_P1;PMS_P2;Temp;Humidity;BMP_temperature;BMP_pressure;BME280_temperature;BME280_humidity;BME280_pressure;Samples;Min_cycle;Max_cycle;Signal;HPM_P1;HPM_P2
2023/11/08 00:00:02;;;;;;;0.00;0.00;;;;;;;9.27;100.00;100941.97;5053787;28;20392;-38
2023/11/08 00:02:27;;;;;;;0.00;0.00;;;;;;;9.26;100.00;100942.94;5043374;28;20025;-39
2023/11/08 00:04:53;;;;;;;0.00;0.00;;;;;;;9.27;100.00;100955.38;5036499;28;20029;-38
2023/11/08 00:07:18;;;;;;;0.00;0.00;;;;;;;9.27;100.00;100957.22;5035020;28;20025;-39
2023/11/08 00:09:43;;;;;;;0.00;0.00;;;;;;;9.29;100.00;100952.50;5036105;28;20028;-38
2023/11/08 00:12:09;;;;;;;0.00;0.00;;;;;;;9.29;100.00;100955.19;5033475;28;20060;-40
2023/11/08 00:14:34;;;;;;;0.00;0.00;;;;;;;9.27;100.00;100958.06;5032004;28;20053;-44
2023/11/08 00:17:01;;;;;;;0.00;0.00;;;;;;;9.25;100.00;100960.09;5049339;28;20025;-44
2023/11/08 00:19:26;;;;;;;0.00;0.00;;;;;;;9.23;100.00;100959.41;5051624;28;20025;-43
2023/11/08 00:21:52;;;;;;;0.00;0.00;;;;;;;9.20;100.00;100959.75;5051864;28;20043;-41
2023/11/08 00:24:18;;;;;;;0.00;0.00;;;;;;;9.19;100.00;100958.91;5051332;28;20025;-41
2023/11/08 00:26:44;;;;;;;0.00;0.00;;;;;;;9.18;100.00;100969.81;5051158;28;20044;-40
2023/11/08 00:29:09;;;;;;;0.00;0.00;;;;;;;9.17;100.00;100970.84;5051480;28;20017;-40
2023/11/08 00:31:34;;;;;;;0.00;0.00;;;;;;;9.18;100.00;100972.50;5051601;28;20464;-41
2023/11/08 00:34:00;;;;;;;0.00;0.00;;;;;;;9.15;100.00;100981.72;5051566;28;20503;-42
2023/11/08 00:36:25;;;;;;;0.00;0.00;;;;;;;9.13;100.00;100986.44;5051152;28;20032;-40
2023/11/08 01:15:50;;;;;;;0.00;0.00;;;;;;;9.42;100.00;101007.38;5031410;28;20060;-39
2023/11/08 01:18:16;;;;;;;0.00;0.00;;;;;;;9.46;100.00;101005.22;5032344;28;20033;-40
2023/11/08 01:20:41;;;;;;;0.00;0.00;;;;;;;9.49;100.00;101015.59;5032024;28;20037;-41
2023/11/08 01:23:08;;;;;;;0.00;0.00;;;;;;;9.56;100.00;101013.09;5032084;28;20041;-41
2023/11/08 01:25:33;;;;;;;0.00;0.00;;;;;;;9.58;100.00;101002.97;5031879;28;20033;-41
2023/11/08 01:27:59;;;;;;;0.00;0.00;;;;;;;9.62;100.00;101001.66;5031719;28;20021;-41
2023/11/08 01:30:24;;;;;;;0.00;0.00;;;;;;;9.63;100.00;101003.31;5031688;28;20033;-39
2023/11/08 01:32:50;;;;;;;0.00;0.00;;;;;;;9.64;100.00;101002.31;5032108;28;20098;-40
2023/11/08 01:35:15;;;;;;;0.00;0.00;;;;;;;9.60;100.00;100999.13;5014396;28;20040;-40
2023/11/08 01:37:41;;;;;;;0.00;0.00;;;;;;;9.57;100.00;101001.31;5032104;28;20025;-40
2023/11/08 01:40:08;;;;;;;0.00;0.00;;;;;;;9.56;100.00;100996.97;5031680;28;20503;-40
2023/11/08 01:42:34;;;;;;;0.00;0.00;;;;;;;9.53;100.00;100998.16;5031775;28;20044;-40
2023/11/08 01:44:59;;;;;;;0.00;0.00;;;;;;;9.51;100.00;100994.78;5030626;28;20040;-39
2023/11/08 01:47:25;;;;;;;0.00;0.00;;;;;;;9.50;100.00;100992.25;5031852;28;20029;-41
2023/11/08 01:49:51;;;;;;;0.00;0.00;;;;;;;9.45;100.00;100990.94;5014290;28;20022;-40
2023/11/08 01:52:16;;;;;;;0.00;0.00;;;;;;;9.44;100.00;100988.41;5051465;28;20471;-38
2023/11/08 01:54:48;;;;;;;0.00;0.00;;;;;;;9.44;100.00;100991.94;5033694;28;20128;-40
2023/11/08 01:57:17;;;;;;;0.00;0.00;;;;;;;9.44;100.00;100986.56;5051193;28;20033;-40
2023/11/08 01:59:43;;;;;;;0.00;0.00;;;;;;;9.43;100.00;100987.59;5051081;28;20029;-40
2023/11/08 02:02:09;;;;;;;0.00;0.00;;;;;;;9.40;100.00;100984.38;5014451;28;20073;-40
2023/11/08 02:04:35;;;;;;;0.00;0.00;;;;;;;9.34;100.00;100985.06;5031045;28;20033;-40
2023/11/08 02:07:01;;;;;;;0.00;0.00;;;;;;;9.24;100.00;100993.28;5031292;28;20018;-42
2023/11/08 02:09:28;;;;;;;0.00;0.00;;;;;;;9.09;100.00;101000.38;5031015;28;20488;-37
2023/11/08 02:11:53;;;;;;;0.00;0.00;;;;;;;8.95;100.00;100993.81;5060082;28;20036;-42
2023/11/08 02:14:18;;;;;;;0.00;0.00;;;;;;;8.89;100.00;101000.69;5062108;28;20017;-40
2023/11/08 02:16:44;;;;;;;0.00;0.00;;;;;;;8.83;100.00;101004.06;5051796;28;20740;-40
2023/11/08 02:19:09;;;;;;;0.00;0.00;;;;;;;8.77;100.00;101012.78;5052296;28;20037;-41
2023/11/08 02:21:35;;;;;;;0.00;0.00;;;;;;;8.73;100.00;101008.75;5054218;28;20029;-41
2023/11/08 02:24:20;;;;;;;0.00;0.00;;;;;;;8.73;100.00;101016.78;5054702;28;20035;-39
2023/11/08 02:26:49;;;;;;;0.00;0.00;;;;;;;8.69;100.00;101020.78;5054847;28;20104;-40
2023/11/08 02:29:17;;;;;;;0.00;0.00;;;;;;;8.67;100.00;101023.66;5036417;28;20032;-39
2023/11/08 02:31:42;;;;;;;0.00;0.00;;;;;;;8.70;100.00;101031.38;5054394;28;20530;-40
2023/11/08 02:34:09;;;;;;;0.00;0.00;;;;;;;8.73;100.00;101038.25;5054485;28;20029;-39
2023/11/08 02:36:37;;;;;;;0.00;0.00;;;;;;;8.75;100.00;101037.09;5052298;28;20424;-40
2023/11/08 02:39:03;;;;;;;0.00;0.00;;;;;;;8.79;100.00;101032.22;5054778;28;20451;-40
2023/11/08 02:41:31;;;;;;;0.00;0.00;;;;;;;8.81;100.00;101040.13;5042466;28;20037;-38
2023/11/08 02:43:56;;;;;;;0.00;0.00;;;;;;;8.81;100.00;101030.22;5034775;28;20527;-39
2023/11/08 02:46:21;;;;;;;0.00;0.00;;;;;;;8.82;100.00;101036.41;5034548;28;20029;-41
2023/11/08 02:48:47;;;;;;;0.00;0.00;;;;;;;8.82;100.00;101025.69;5034495;28;20036;-41
2023/11/08 02:51:12;;;;;;;0.00;0.00;;;;;;;8.81;100.00;101024.84;5034534;28;20033;-41
2023/11/08 02:53:37;;;;;;;0.00;0.00;;;;;;;8.80;100.00;101028.56;5034725;28;20033;-40
2023/11/08 02:56:03;;;;;;;0.00;0.00;;;;;;;8.77;100.00;101028.88;5034477;28;20026;-41
2023/11/08 02:58:30;;;;;;;0.00;0.00;;;;;;;8.73;100.00;101030.22;5034712;28;20117;-41
2023/11/08 03:00:56;;;;;;;0.00;0.00;;;;;;;8.72;100.00;101024.00;5034551;28;20084;-41
2023/11/08 03:03:21;;;;;;;0.00;0.00;;;;;;;8.75;100.00;101025.53;5034325;28;20030;-41
2023/11/08 03:05:46;;;;;;;0.00;0.00;;;;;;;8.77;100.00;101026.19;5034524;28;20384;-40
2023/11/08 03:08:12;;;;;;;0.00;0.00;;;;;;;8.76;100.00;101021.81;5034490;28;20030;-40
2023/11/08 03:10:38;;;;;;;0.00;0.00;;;;;;;8.79;100.00;101026.84;5034469;28;20022;-40
2023/11/08 03:13:04;;;;;;;0.00;0.00;;;;;;;8.83;100.00;101030.91;5034481;28;20026;-41
2023/11/08 03:15:31;;;;;;;0.00;0.00;;;;;;;8.82;100.00;101026.53;5034521;28;20620;-40
2023/11/08 03:17:56;;;;;;;0.00;0.00;;;;;;;8.79;100.00;101026.84;5016441;28;20021;-39
2023/11/08 03:20:23;;;;;;;0.00;0.00;;;;;;;8.76;100.00;101027.19;5033895;28;20099;-40
2023/11/08 03:22:49;;;;;;;0.00;0.00;;;;;;;8.77;100.00;101026.19;5034011;28;20037;-41
2023/11/08 03:25:16;;;;;;;0.00;0.00;;;;;;;8.80;100.00;101028.56;5034044;28;20464;-41
2023/11/08 03:27:42;;;;;;;0.00;0.00;;;;;;;8.81;100.00;101024.84;5033504;28;20330;-41
2023/11/08 03:30:12;;;;;;;0.00;0.00;;;;;;;8.85;100.00;101028.06;5016167;28;20526;-41
2023/11/08 03:32:40;;;;;;;0.00;0.00;;;;;;;8.87;100.00;101017.97;5034161;28;20030;-42
2023/11/08 03:35:07;;;;;;;0.00;0.00;;;;;;;8.84;100.00;101015.63;5034063;28;20028;-41
2023/11/08 03:37:36;;;;;;;0.00;0.00;;;;;;;8.86;100.00;101022.50;5033416;28;20036;-39
2023/11/08 03:40:02;;;;;;;0.00;0.00;;;;;;;8.81;100.00;101022.16;5033932;28;20057;-40
2023/11/08 03:42:28;;;;;;;0.00;0.00;;;;;;;8.79;100.00;101038.44;5033891;28;20345;-41
2023/11/08 03:44:53;;;;;;;0.00;0.00;;;;;;;8.74;100.00;101031.88;5033877;28;20017;-38
2023/11/08 03:47:19;;;;;;;0.00;0.00;;;;;;;8.73;100.00;101022.16;5033598;28;20067;-40
2023/11/08 03:49:44;;;;;;;0.00;0.00;;;;;;;8.65;100.00;101030.19;5033842;28;20025;-40
2023/11/08 03:52:09;;;;;;;0.00;0.00;;;;;;;8.67;100.00;101022.81;5033143;28;20053;-40
2023/11/08 03:54:35;;;;;;;0.00;0.00;;;;;;;8.71;100.00;101029.53;5033297;28;20030;-40
2023/11/08 03:57:00;;;;;;;0.00;0.00;;;;;;;8.63;100.00;101024.16;5034260;28;20025;-41
2023/11/08 03:59:26;;;;;;;0.00;0.00;;;;;;;8.61;100.00;101031.50;5036662;28;20036;-41
2023/11/08 04:01:52;;;;;;;0.00;0.00;;;;;;;8.62;100.00;101035.91;5037620;28;20025;-40
2023/11/08 04:04:17;;;;;;;0.00;0.00;;;;;;;8.62;100.00;101035.91;5033229;28;20030;-40
2023/11/08 04:06:42;;;;;;;0.00;0.00;;;;;;;8.63;100.00;101037.56;5033236;28;20031;-40
2023/11/08 04:09:07;;;;;;;0.00;0.00;;;;;;;8.64;100.00;101034.72;5033161;28;20123;-41
2023/11/08 04:11:33;;;;;;;0.00;0.00;;;;;;;8.63;100.00;101043.75;5045322;28;20113;-40
2023/11/08 04:13:59;;;;;;;0.00;0.00;;;;;;;8.63;100.00;101043.75;5052796;28;20040;-40
2023/11/08 04:16:25;;;;;;;0.00;0.00;;;;;;;8.65;100.00;101036.41;5052432;28;20073;-40
2023/11/08 04:18:51;;;;;;;0.00;0.00;;;;;;;8.61;100.00;101043.09;5052972;28;20549;-40
2023/11/08 04:21:17;;;;;;;0.00;0.00;;;;;;;8.66;100.00;101043.47;5043239;28;20040;-41
2023/11/08 04:23:42;;;;;;;0.00;0.00;;;;;;;8.60;100.00;101040.56;5015176;28;20329;-40
2023/11/08 04:26:07;;;;;;;0.00;0.00;;;;;;;8.53;100.00;101035.88;5033009;28;20034;-41
2023/11/08 04:28:33;;;;;;;0.00;0.00;;;;;;;8.53;100.00;101040.38;5032790;28;20033;-41
2023/11/08 04:30:58;;;;;;;0.00;0.00;;;;;;;8.58;100.00;101054.16;5039607;28;20036;-42
2023/11/08 04:33:24;;;;;;;0.00;0.00;;;;;;;8.59;100.00;101041.59;5052903;28;20440;-39
2023/11/08 04:35:49;;;;;;;0.00;0.00;;;;;;;8.58;100.00;101054.16;5049071;28;20112;-40
2023/11/08 04:38:15;;;;;;;0.00;0.00;;;;;;;8.60;100.00;101056.69;5033087;28;20032;-38
2023/11/08 04:40:40;;;;;;;0.00;0.00;;;;;;;8.56;100.00;101053.50;5036487;28;20111;-39
2023/11/08 04:43:06;;;;;;;0.00;0.00;;;;;;;8.57;100.00;101056.00;5052393;28;20144;-40
2023/11/08 04:45:31;;;;;;;0.00;0.00;;;;;;;8.54;100.00;101045.59;5051721;28;20083;-41
2023/11/08 04:47:57;;;;;;;0.00;0.00;;;;;;;8.53;100.00;101043.94;5052093;28;20041;-39
2023/11/08 04:50:22;;;;;;;0.00;0.00;;;;;;;8.57;100.00;101045.25;5052374;28;20060;-41
2023/11/08 04:52:47;;;;;;;0.00;0.00;;;;;;;8.59;100.00;101046.97;5051236;28;20037;-41
2023/11/08 04:55:13;;;;;;;0.00;0.00;;;;;;;8.55;100.00;101043.75;5052272;28;20361;-40
2023/11/08 04:57:38;;;;;;;0.00;0.00;;;;;;;8.60;100.00;101040.56;5045768;28;20034;-40
2023/11/08 05:00:05;;;;;;;0.00;0.00;;;;;;;8.55;100.00;101035.69;5038488;28;20040;-40
2023/11/08 05:02:33;;;;;;;0.00;0.00;;;;;;;8.54;100.00;101040.22;5040074;28;20087;-37
2023/11/08 05:04:58;;;;;;;0.00;0.00;;;;;;;8.53;100.00;101038.56;5037266;28;20032;-38
2023/11/08 05:07:25;;;;;;;0.00;0.00;;;;;;;8.51;100.00;101045.94;5037080;28;20356;-41
2023/11/08 05:09:53;;;;;;;0.00;0.00;;;;;;;8.50;100.00;101030.81;5034588;28;20591;-40
2023/11/08 05:12:19;;;;;;;0.00;0.00;;;;;;;8.49;100.00;101047.09;5041815;28;20047;-41
2023/11/08 05:14:45;;;;;;;0.00;0.00;;;;;;;8.43;100.00;101043.22;5051758;28;20029;-40
2023/11/08 05:17:10;;;;;;;0.00;0.00;;;;;;;8.43;100.00;101039.72;5051748;28;20059;-41
2023/11/08 05:19:35;;;;;;;0.00;0.00;;;;;;;8.40;100.00;101048.91;5051927;28;20108;-41
2023/11/08 05:22:01;;;;;;;0.00;0.00;;;;;;;8.38;100.00;101042.84;5036515;28;20021;-40
2023/11/08 05:24:27;;;;;;;0.00;0.00;;;;;;;8.34;100.00;101044.97;5034383;28;20064;-41
2023/11/08 05:26:53;;;;;;;0.00;0.00;;;;;;;8.38;100.00;101045.53;5052727;28;20028;-41
2023/11/08 05:29:18;;;;;;;0.00;0.00;;;;;;;8.39;100.00;101041.00;5031210;28;20467;-41
2023/11/08 05:31:44;;;;;;;0.00;0.00;;;;;;;8.38;100.00;101040.16;5048777;28;20037;-41
2023/11/08 05:34:09;;;;;;;0.00;0.00;;;;;;;8.37;100.00;101038.47;5048746;28;20057;-40
2023/11/08 05:36:36;;;;;;;0.00;0.00;;;;;;;8.35;100.00;101040.50;5049869;28;20029;-40
2023/11/08 05:39:02;;;;;;;0.00;0.00;;;;;;;8.35;100.00;101035.97;5049492;28;20104;-39
2023/11/08 05:41:27;;;;;;;0.00;0.00;;;;;;;8.32;100.00;101030.06;5040804;28;20084;-41
2023/11/08 05:43:57;;;;;;;0.00;0.00;;;;;;;8.32;100.00;101035.41;5029195;28;20029;-40
2023/11/08 05:46:23;;;;;;;0.00;0.00;;;;;;;8.30;100.00;101022.19;5043014;28;20036;-40
2023/11/08 05:48:48;;;;;;;0.00;0.00;;;;;;;8.28;100.00;101026.03;5049520;28;20025;-40
2023/11/08 05:51:14;;;;;;;0.00;0.00;;;;;;;8.29;100.00;101020.53;5048407;28;20048;-40
2023/11/08 05:53:39;;;;;;;0.00;0.00;;;;;;;8.28;100.00;101012.63;5048277;28;20067;-41
2023/11/08 05:56:06;;;;;;;0.00;0.00;;;;;;;8.34;100.00;101014.66;5047399;28;20041;-41
2023/11/08 05:58:35;;;;;;;0.00;0.00;;;;;;;8.35;100.00;101009.13;5049157;28;20029;-40
2023/11/08 06:01:03;;;;;;;0.00;0.00;;;;;;;8.37;100.00;101014.31;5045300;28;20515;-41
2023/11/08 06:03:28;;;;;;;0.00;0.00;;;;;;;8.35;100.00;101013.66;5050523;28;20048;-40
2023/11/08 06:05:54;;;;;;;0.00;0.00;;;;;;;8.35;100.00;101013.66;5049720;28;20136;-39
2023/11/08 06:08:20;;;;;;;0.00;0.00;;;;;;;8.32;100.00;101008.59;5050279;28;20040;-38
2023/11/08 06:10:45;;;;;;;0.00;0.00;;;;;;;8.32;100.00;101003.25;5050810;28;20025;-40
2023/11/08 06:13:11;;;;;;;0.00;0.00;;;;;;;8.27;100.00;101006.44;5050624;28;20040;-38
2023/11/08 06:15:36;;;;;;;0.00;0.00;;;;;;;8.27;100.00;101013.66;5051258;28;20053;-39
2023/11/08 06:18:01;;;;;;;0.00;0.00;;;;;;;8.27;100.00;101016.31;5051288;28;20031;-39
2023/11/08 06:20:27;;;;;;;0.00;0.00;;;;;;;8.22;100.00;101019.50;5054356;28;20467;-41
2023/11/08 06:22:52;;;;;;;0.00;0.00;;;;;;;8.20;100.00;101020.66;5050971;28;20482;-40
2023/11/08 06:25:18;;;;;;;0.00;0.00;;;;;;;8.17;100.00;101027.19;5052279;28;20025;-40
2023/11/08 06:27:43;;;;;;;0.00;0.00;;;;;;;8.16;100.00;101022.78;5045014;28;20391;-38
2023/11/08 06:30:09;;;;;;;0.00;0.00;;;;;;;8.18;100.00;101017.28;5043865;28;20029;-40
2023/11/08 06:32:35;;;;;;;0.00;0.00;;;;;;;8.17;100.00;101018.31;5051183;28;20108;-41
2023/11/08 06:35:02;;;;;;;0.00;0.00;;;;;;;8.17;100.00;101026.34;5050822;28;20027;-41
2023/11/08 06:37:28;;;;;;;0.00;0.00;;;;;;;8.10;100.00;101032.34;5051015;28;20033;-40
2023/11/08 06:39:53;;;;;;;0.00;0.00;;;;;;;8.07;100.00;101024.63;5050985;28;20029;-38
2023/11/08 06:42:18;;;;;;;0.00;0.00;;;;;;;8.07;100.00;101021.94;5050359;28;20108;-41
2023/11/08 06:44:44;;;;;;;0.00;0.00;;;;;;;8.03;100.00;101028.63;5049233;28;20041;-42
2023/11/08 06:47:10;;;;;;;0.00;0.00;;;;;;;8.02;100.00;101026.94;5051068;28;20021;-40
2023/11/08 06:49:37;;;;;;;0.00;0.00;;;;;;;8.00;100.00;101009.34;5050867;28;20447;-40
2023/11/08 06:52:03;;;;;;;0.00;0.00;;;;;;;7.97;100.00;101010.50;5050599;28;20052;-39
2023/11/08 06:54:29;;;;;;;0.00;0.00;;;;;;;7.99;100.00;101013.03;5049818;28;20064;-39
2023/11/08 06:56:54;;;;;;;0.00;0.00;;;;;;;7.99;100.00;101019.22;5049459;28;20529;-42
2023/11/08 06:59:19;;;;;;;0.00;0.00;;;;;;;7.97;100.00;101017.69;5042054;28;20104;-41
2023/11/08 07:01:45;;;;;;;0.00;0.00;;;;;;;7.97;100.00;101031.09;5031183;28;20021;-42
2023/11/08 07:04:11;;;;;;;0.00;0.00;;;;;;;7.99;100.00;101011.19;5036970;28;20029;-40
2023/11/08 07:06:36;;;;;;;0.00;0.00;;;;;;;7.97;100.00;100999.78;5053100;28;20022;-40
2023/11/08 07:09:02;;;;;;;0.00;0.00;;;;;;;7.96;100.00;101008.00;5052027;28;20051;-40
2023/11/08 07:11:28;;;;;;;0.00;0.00;;;;;;;7.97;100.00;101007.81;5048765;28;20021;-40
2023/11/08 07:13:53;;;;;;;0.00;0.00;;;;;;;7.99;100.00;101018.38;5041282;28;20057;-39
2023/11/08 07:16:19;;;;;;;0.00;0.00;;;;;;;7.99;100.00;101019.22;5033499;28;20053;-40
2023/11/08 07:18:45;;;;;;;0.00;0.00;;;;;;;8.05;100.00;101017.75;5043048;28;20036;-41
2023/11/08 07:21:20;;;;;;;0.00;0.00;;;;;;;8.09;100.00;101019.94;5053668;28;20052;-40
2023/11/08 07:23:46;;;;;;;0.00;0.00;;;;;;;8.16;100.00;101009.41;5040273;28;20029;-41
2023/11/08 07:26:15;;;;;;;0.00;0.00;;;;;;;8.13;100.00;101020.44;5034169;28;20025;-40
2023/11/08 07:28:44;;;;;;;0.00;0.00;;;;;;;8.16;100.00;101019.28;5034193;28;20037;-41
2023/11/08 07:31:10;;;;;;;0.00;0.00;;;;;;;8.22;100.00;101019.50;5033971;28;20021;-41
2023/11/08 07:33:36;;;;;;;0.00;0.00;;;;;;;8.17;100.00;101016.44;5034509;28;20025;-40
2023/11/08 07:36:01;;;;;;;0.00;0.00;;;;;;;8.19;100.00;101018.94;5040564;28;20742;-41
2023/11/08 07:38:27;;;;;;;0.00;0.00;;;;;;;8.27;100.00;101022.53;5055162;28;20032;-40
2023/11/08 07:40:52;;;;;;;0.00;0.00;;;;;;;8.37;100.00;101022.38;5039345;28;20112;-41
2023/11/08 07:43:17;;;;;;;0.00;0.00;;;;;;;8.39;100.00;101019.53;5053662;28;20025;-40
2023/11/08 07:45:43;;;;;;;0.00;0.00;;;;;;;8.42;100.00;101012.03;5041709;28;20084;-39
2023/11/08 07:48:08;;;;;;;0.00;0.00;;;;;;;8.64;100.00;101028.53;5052301;28;20025;-41
2023/11/08 07:50:34;;;;;;;0.00;0.00;;;;;;;8.75;100.00;101014.78;5034067;28;20053;-42
2023/11/08 07:52:59;;;;;;;0.00;0.00;;;;;;;8.87;100.00;101016.13;5044064;28;20052;-40
2023/11/08 07:55:25;;;;;;;0.00;0.00;;;;;;;9.06;100.00;101016.81;5035789;28;20112;-38
2023/11/08 07:57:50;;;;;;;0.00;0.00;;;;;;;9.45;100.00;101015.13;5052088;28;20495;-40
2023/11/08 08:00:22;;;;;;;0.00;0.00;;;;;;;9.92;100.00;101018.00;5053051;28;20047;-41
2023/11/08 08:02:48;;;;;;;0.00;0.00;;;;;;;9.86;100.00;101001.56;5044424;28;20575;-40
2023/11/08 08:05:13;;;;;;;0.00;0.00;;;;;;;9.79;100.00;100995.19;5049877;28;20047;-41
2023/11/08 08:07:39;;;;;;;0.00;0.00;;;;;;;9.49;100.00;100991.44;5066124;28;20480;-41
2023/11/08 08:10:06;;;;;;;0.00;0.00;;;;;;;9.16;100.00;100996.00;5053347;28;20025;-41
2023/11/08 08:12:32;;;;;;;0.00;0.00;;;;;;;8.97;100.00;100986.44;5052674;28;20048;-42
2023/11/08 08:14:58;;;;;;;0.00;0.00;;;;;;;8.93;100.00;100991.31;5053325;28;20069;-40
2023/11/08 08:17:23;;;;;;;0.00;0.00;;;;;;;8.98;100.00;100999.72;5052683;28;20080;-41
2023/11/08 08:19:48;;;;;;;0.00;0.00;;;;;;;8.89;100.00;101006.06;5052629;28;20045;-41
2023/11/08 08:22:14;;;;;;;0.00;0.00;;;;;;;8.79;100.00;101005.38;5053294;28;20341;-41
2023/11/08 08:24:40;;;;;;;0.00;0.00;;;;;;;8.77;100.00;100999.38;5053016;28;20058;-40
2023/11/08 08:27:05;;;;;;;0.00;0.00;;;;;;;8.86;100.00;101013.63;5052998;28;20317;-40
2023/11/08 08:29:31;;;;;;;0.00;0.00;;;;;;;8.86;100.00;101005.56;5053151;28;20032;-40
2023/11/08 08:31:57;;;;;;;0.00;0.00;;;;;;;8.88;100.00;101008.94;5047082;28;20411;-40
2023/11/08 08:34:23;;;;;;;0.00;0.00;;;;;;;8.83;100.00;101028.22;5036705;28;20396;-40
2023/11/08 08:36:48;;;;;;;0.00;0.00;;;;;;;8.84;100.00;101003.03;5044983;28;20037;-41
2023/11/08 08:39:15;;;;;;;0.00;0.00;;;;;;;8.87;100.00;100999.19;5040937;28;20032;-39
2023/11/08 08:41:43;;;;;;;0.00;0.00;;;;;;;8.87;100.00;100994.66;5052135;28;20033;-41
2023/11/08 08:44:09;;;;;;;0.00;0.00;;;;;;;8.77;100.00;100999.38;5052806;28;20021;-40
2023/11/08 08:46:34;;;;;;;0.00;0.00;;;;;;;8.76;100.00;101006.56;5052398;28;20078;-41
2023/11/08 08:49:00;;;;;;;0.00;0.00;;;;;;;8.67;100.00;100993.31;5052090;28;20111;-40
2023/11/08 08:51:26;;;;;;;0.00;0.00;;;;;;;8.64;100.00;101002.53;5052086;28;20099;-41
2023/11/08 08:53:51;;;;;;;0.00;0.00;;;;;;;8.67;100.00;101002.19;5033442;28;20056;-41
2023/11/08 08:56:16;;;;;;;0.00;0.00;;;;;;;8.53;100.00;101000.16;5034068;28;20032;-41
2023/11/08 08:58:42;;;;;;;0.00;0.00;;;;;;;8.54;100.00;101013.41;5051568;28;20103;-41
2023/11/08 09:01:10;;;;;;;0.00;0.00;;;;;;;8.54;100.00;100997.31;5052432;28;20033;-42
2023/11/08 09:03:36;;;;;;;0.00;0.00;;;;;;;8.60;100.00;100992.28;5052803;28;20029;-41
2023/11/08 09:06:01;;;;;;;0.00;0.00;;;;;;;8.53;100.00;101001.00;5051461;28;20025;-41
2023/11/08 09:08:26;;;;;;;0.00;0.00;;;;;;;8.52;100.00;100993.13;5054364;28;20478;-41
2023/11/08 09:10:53;;;;;;;0.00;0.00;;;;;;;8.56;100.00;100994.47;5071430;28;20028;-41
2023/11/08 09:13:19;;;;;;;0.00;0.00;;;;;;;8.54;100.00;100994.63;5057946;28;20152;-40
2023/11/08 09:15:46;;;;;;;0.00;0.00;;;;;;;8.50;100.00;100990.59;5040344;28;20116;-40
2023/11/08 09:18:11;;;;;;;0.00;0.00;;;;;;;8.41;100.00;101001.47;5047499;28;20037;-40
2023/11/08 09:20:36;;;;;;;0.00;0.00;;;;;;;8.36;100.00;101007.28;5052101;28;20059;-41
2023/11/08 09:23:02;;;;;;;0.00;0.00;;;;;;;8.34;100.00;101022.69;5051372;28;20052;-40
2023/11/08 09:25:28;;;;;;;0.00;0.00;;;;;;;8.34;100.00;101012.81;5050992;28;20036;-40
2023/11/08 09:27:53;;;;;;;0.00;0.00;;;;;;;8.34;100.00;101011.97;5043429;28;20029;-41
2023/11/08 09:30:19;;;;;;;0.00;0.00;;;;;;;8.37;100.00;101000.91;5034590;28;20060;-41
2023/11/08 09:32:45;;;;;;;0.00;0.00;;;;;;;8.38;100.00;101015.19;5046537;28;20463;-40
2023/11/08 09:35:10;;;;;;;0.00;0.00;;;;;;;8.42;100.00;100997.78;5032663;28;20472;-41
2023/11/08 09:37:36;;;;;;;0.00;0.00;;;;;;;8.45;100.00;101002.81;5042327;28;20025;-38
2023/11/08 09:40:04;;;;;;;0.00;0.00;;;;;;;8.59;100.00;100987.94;5033984;28;20109;-41
2023/11/08 09:42:31;;;;;;;0.00;0.00;;;;;;;8.82;100.00;100983.59;5046638;28;20029;-37
2023/11/08 09:44:58;;;;;;;0.00;0.00;;;;;;;8.90;100.00;100978.22;5051742;28;20025;-40
2023/11/08 09:47:23;;;;;;;0.00;0.00;;;;;;;9.19;100.00;100964.28;5047070;28;20276;-39
2023/11/08 09:49:51;;;;;;;0.00;0.00;;;;;;;9.29;100.00;100960.56;5016273;28;20359;-40
2023/11/08 09:52:16;;;;;;;0.00;0.00;;;;;;;9.24;100.00;100958.38;5046255;28;20024;-41
2023/11/08 09:54:43;;;;;;;0.00;0.00;;;;;;;9.27;100.00;100955.38;5053519;28;20087;-41
2023/11/08 09:57:13;;;;;;;0.00;0.00;;;;;;;9.38;100.00;100968.44;5051163;28;20116;-41
2023/11/08 09:59:39;;;;;;;0.00;0.00;;;;;;;9.36;100.00;100935.53;5050398;28;20495;-40
2023/11/08 10:02:07;;;;;;;0.00;0.00;;;;;;;9.37;100.00;100947.97;5028694;28;20084;-41
2023/11/08 10:04:33;;;;;;;0.00;0.00;;;;;;;9.38;100.00;100941.59;5013919;28;20034;-40
2023/11/08 10:06:59;;;;;;;0.00;0.00;;;;;;;9.45;100.00;100937.22;5040409;28;20029;-40
2023/11/08 10:09:31;;;;;;;0.00;0.00;;;;;;;9.49;100.00;100928.81;5040681;28;20072;-41
2023/11/08 10:11:58;;;;;;;0.00;0.00;;;;;;;9.40;100.00;100925.28;5042310;28;20036;-41
2023/11/08 10:14:40;;;;;;;0.00;0.00;;;;;;;9.46;100.00;100927.28;5050382;28;20033;-41
2023/11/08 10:17:06;;;;;;;0.00;0.00;;;;;;;9.48;100.00;100916.34;5040895;28;20045;-40
2023/11/08 10:19:57;;;;;;;0.00;0.00;;;;;;;9.51;100.00;100910.66;5050074;28;20017;-42
2023/11/08 10:22:23;;;;;;;0.00;0.00;;;;;;;9.49;100.00;100910.00;5045958;28;20053;-40
2023/11/08 10:24:56;;;;;;;0.00;0.00;;;;;;;9.42;100.00;100907.16;5050603;28;20036;-41
2023/11/08 10:27:22;;;;;;;0.00;0.00;;;;;;;9.54;100.00;100902.25;5033407;28;20036;-41
2023/11/08 10:29:47;;;;;;;0.00;0.00;;;;;;;9.34;100.00;100910.69;5041677;28;20084;-41
2023/11/08 10:32:24;;;;;;;0.00;0.00;;;;;;;9.33;100.00;100906.34;5031362;28;20029;-41
2023/11/08 10:34:52;;;;;;;0.00;0.00;;;;;;;9.31;100.00;100904.84;5031351;28;20037;-42
2023/11/08 10:37:25;;;;;;;0.00;0.00;;;;;;;9.33;100.00;100900.13;5044564;28;20305;-40
2023/11/08 10:39:56;;;;;;;0.00;0.00;;;;;;;9.29;100.00;100888.88;5046566;28;20428;-40
2023/11/08 10:42:22;;;;;;;0.00;0.00;;;;;;;9.44;100.00;100897.91;5055009;28;20045;-41
2023/11/08 10:44:48;;;;;;;0.00;0.00;;;;;;;9.43;100.00;100890.88;5055034;28;20434;-40
2023/11/08 10:47:13;;;;;;;0.00;0.00;;;;;;;9.50;100.00;100884.78;5047808;28;20037;-41
2023/11/08 10:49:40;;;;;;;0.00;0.00;;;;;;;9.51;100.00;100886.50;5040449;28;20468;-41
2023/11/08 10:52:10;;;;;;;0.00;0.00;;;;;;;9.69;100.00;100879.03;5036713;28;20040;-40
2023/11/08 10:54:38;;;;;;;0.00;0.00;;;;;;;9.71;100.00;100876.97;5054241;28;20419;-41
2023/11/08 10:57:05;;;;;;;;;;;;;;;9.76;100.00;100869.22;5055152;28;20472;-40
2023/11/08 10:59:36;;;;;;;0.00;0.00;;;;;;;9.83;100.00;100861.31;5054703;28;19913;-41
2023/11/08 11:02:21;;;;;;;0.00;0.00;;;;;;;9.85;100.00;100865.50;5049792;28;20178;-41
2023/11/08 11:04:49;;;;;;;0.00;0.00;;;;;;;9.71;100.00;100855.47;5036770;28;20033;-41
2023/11/08 11:07:15;;;;;;;0.00;0.00;;;;;;;9.81;100.00;100853.41;5031488;28;20036;-41
2023/11/08 11:09:41;;;;;;;0.00;0.00;;;;;;;9.71;100.00;100857.31;5033732;28;20067;-40
2023/11/08 11:12:09;;;;;;;0.00;0.00;;;;;;;9.72;100.00;100857.16;5050705;28;20503;-41
2023/11/08 11:14:45;;;;;;;0.00;0.00;;;;;;;9.82;100.00;100849.72;5018390;28;20030;-41
2023/11/08 11:17:24;;;;;;;0.00;0.00;;;;;;;9.73;100.00;100856.13;5034170;28;20060;-41
2023/11/08 11:19:52;;;;;;;0.00;0.00;;;;;;;9.72;100.00;100861.72;5016559;28;20047;-42
2023/11/08 11:22:18;;;;;;;0.00;0.00;;;;;;;9.63;100.00;100885.06;5027350;28;20032;-41
2023/11/08 11:24:45;;;;;;;0.00;0.00;;;;;;;9.60;100.00;100855.88;5073700;28;20383;-41
2023/11/08 11:27:35;;;;;;;0.00;0.00;;;;;;;9.53;100.00;100847.69;5055886;28;20016;-42
2023/11/08 11:30:18;;;;;;;0.00;0.00;;;;;;;9.57;100.00;100845.47;5036870;28;20041;-40
2023/11/08 11:32:47;;;;;;;0.00;0.00;;;;;;;9.40;100.00;100831.25;5034957;28;20468;-41
2023/11/08 11:35:27;;;;;;;0.00;0.00;;;;;;;9.35;100.00;100847.94;5034819;28;20061;-40
2023/11/08 11:38:12;;;;;;;0.00;0.00;;;;;;;9.37;100.00;100826.25;5036505;28;20443;-42
2023/11/08 11:40:38;;;;;;;0.00;0.00;;;;;;;9.35;100.00;100828.28;5053287;28;20033;-40
2023/11/08 11:43:38;;;;;;;0.00;0.00;;;;;;;9.43;100.00;100825.56;5052593;28;20041;-41
2023/11/08 11:46:03;;;;;;;0.00;0.00;;;;;;;9.39;100.00;100821.53;5019239;28;20029;-40
2023/11/08 11:48:33;;;;;;;0.00;0.00;;;;;;;9.38;100.00;100812.66;5032595;28;20392;-41
2023/11/08 11:50:59;;;;;;;0.00;0.00;;;;;;;9.31;100.00;100825.09;5050970;28;20395;-41
2023/11/08 11:53:27;;;;;;;0.00;0.00;;;;;;;9.34;100.00;100802.44;5050171;28;20032;-40
2023/11/08 11:56:06;;;;;;;0.00;0.00;;;;;;;9.41;100.00;100801.56;5029357;28;20060;-42
2023/11/08 11:58:31;;;;;;;0.00;0.00;;;;;;;9.34;100.00;100803.25;5038445;28;20060;-41